createdAt,value
2023-03-05T00:02:52.775Z,14.57
2023-03-05T00:08:17.050Z,13.93
2023-03-05T00:13:40.833Z,14.10
2023-03-05T00:19:04.822Z,12.50
2023-03-05T00:24:32.807Z,13.15
2023-03-05T00:29:57.291Z,12.80
2023-03-05T00:35:21.994Z,13.62
2023-03-05T00:40:48.473Z,12.33
2023-03-05T00:46:11.654Z,10.43
2023-03-05T00:51:35.779Z,11.85
2023-03-05T00:57:00.494Z,11.63
2023-03-05T01:02:27.038Z,10.90
2023-03-05T01:07:51.777Z,11.17
2023-03-05T01:13:15.203Z,12.03
2023-03-05T01:18:40.687Z,11.55
2023-03-05T01:24:05.268Z,11.10
2023-03-05T01:29:28.565Z,11.53
2023-03-05T01:34:52.348Z,10.78
2023-03-05T01:40:17.412Z,11.63
2023-03-05T01:45:43.367Z,11.38
2023-03-05T01:51:08.326Z,10.63
2023-03-05T01:56:32.420Z,11.08
2023-03-05T02:01:59.191Z,10.15
2023-03-05T02:07:24.304Z,9.98
2023-03-05T02:12:47.406Z,7.97
2023-03-05T02:18:10.372Z,7.87
2023-03-05T02:29:13.945Z,7.30
2023-03-05T02:34:38.645Z,7.63
2023-03-05T02:40:03.879Z,7.30
2023-03-05T02:45:28.730Z,6.47
2023-03-05T02:50:55.122Z,6.27
2023-03-05T02:56:19.609Z,5.63
2023-03-05T03:01:42.690Z,5.53
2023-03-05T03:07:05.704Z,4.63
2023-03-05T03:12:28.932Z,4.63
2023-03-05T03:17:52.806Z,4.67
2023-03-05T03:23:15.176Z,5.20
2023-03-05T03:28:37.445Z,4.97
2023-03-05T03:33:59.762Z,4.30
2023-03-05T03:39:24.316Z,4.30
2023-03-05T03:44:47.190Z,3.70
2023-03-05T03:50:11.242Z,4.13
2023-03-05T03:55:33.927Z,4.00
2023-03-05T04:00:58.952Z,3.52
2023-03-05T04:06:21.898Z,3.87
2023-03-05T04:11:44.553Z,3.60
2023-03-05T04:17:06.819Z,3.80
2023-03-05T04:22:33.638Z,3.67
2023-03-05T04:27:57.607Z,4.33
2023-03-05T04:33:20.386Z,3.57
2023-03-05T04:38:43.436Z,4.03
2023-03-05T04:44:05.636Z,4.10
2023-03-05T04:49:28.030Z,3.47
2023-03-05T04:54:51.516Z,3.87
2023-03-05T05:00:15.348Z,3.13
2023-03-05T05:05:40.562Z,3.73
2023-03-05T05:11:10.280Z,3.90
2023-03-05T05:16:32.463Z,4.30
2023-03-05T05:21:55.878Z,3.17
2023-03-05T05:27:18.144Z,4.03
2023-03-05T05:32:42.381Z,4.07
2023-03-05T05:38:06.254Z,4.23
2023-03-05T05:43:31.145Z,4.60
2023-03-05T05:48:56.876Z,4.57
2023-03-05T05:54:22.817Z,4.50
2023-03-05T05:59:48.129Z,4.73
2023-03-05T06:05:12.553Z,4.17
2023-03-05T06:10:34.756Z,4.20
2023-03-05T06:16:06.888Z,4.73
2023-03-05T06:21:32.200Z,4.17
2023-03-05T06:26:55.041Z,4.27
2023-03-05T06:32:19.182Z,3.83
2023-03-05T06:37:42.262Z,3.63
2023-03-05T06:43:04.516Z,3.50
2023-03-05T06:48:26.797Z,3.30
2023-03-05T06:53:49.784Z,2.90
2023-03-05T06:59:12.869Z,3.13
2023-03-05T07:04:35.887Z,3.70
2023-03-05T07:09:58.091Z,3.60
2023-03-05T07:15:21.660Z,3.80
2023-03-05T07:20:43.980Z,4.20
2023-03-05T07:26:09.644Z,4.40
2023-03-05T07:31:35.309Z,4.30
2023-03-05T07:36:58.143Z,4.00
2023-03-05T07:42:21.082Z,4.93
2023-03-05T07:47:43.392Z,4.77
2023-03-05T07:53:06.031Z,5.73
2023-03-05T07:58:28.323Z,5.53
2023-03-05T08:03:50.841Z,5.73
2023-03-05T08:09:13.363Z,6.10
2023-03-05T08:14:36.147Z,5.10
2023-03-05T08:20:00.014Z,5.30
2023-03-05T08:25:23.335Z,6.05
2023-03-05T08:30:47.336Z,6.55
2023-03-05T08:36:10.020Z,6.58
2023-03-05T08:41:32.361Z,7.40
2023-03-05T08:46:54.718Z,6.13
2023-03-05T08:52:17.137Z,7.70
2023-03-05T08:57:39.398Z,7.50
2023-03-05T09:03:01.817Z,8.03
2023-03-05T09:08:25.321Z,6.10
2023-03-05T09:13:48.296Z,6.27
2023-03-05T09:19:13.381Z,4.87
2023-03-05T09:24:36.881Z,5.30
2023-03-05T09:29:59.377Z,5.07
2023-03-05T09:35:22.746Z,5.20
2023-03-05T09:41:04.285Z,4.40
2023-03-05T09:46:49.351Z,5.13
2023-03-05T09:52:16.447Z,5.40
2023-03-05T09:57:58.599Z,6.43
2023-03-05T10:03:31.279Z,6.93
2023-03-05T10:14:54.189Z,9.03
2023-03-05T10:20:45.713Z,6.10
2023-03-05T10:26:30.515Z,5.90
2023-03-05T10:32:06.735Z,6.27
2023-03-05T10:37:55.281Z,5.97
2023-03-05T10:44:02.917Z,6.33
2023-03-05T10:49:44.288Z,6.67
2023-03-05T10:55:07.072Z,5.30
2023-03-05T11:00:42.945Z,5.20
2023-03-05T11:06:16.897Z,5.70
2023-03-05T11:11:39.959Z,4.77
2023-03-05T11:17:04.558Z,5.58
2023-03-05T11:22:32.474Z,4.60
2023-03-05T11:28:03.927Z,4.20
2023-03-05T11:33:29.251Z,4.20
2023-03-05T11:39:03.295Z,4.07
2023-03-05T11:44:55.281Z,4.30
2023-03-05T11:50:30.712Z,3.57
2023-03-05T11:56:10.180Z,3.33
2023-03-05T12:01:39.597Z,3.73
2023-03-05T12:07:13.491Z,2.93
2023-03-05T12:12:49.371Z,3.30
2023-03-05T12:18:37.378Z,3.80
2023-03-05T12:24:08.654Z,3.75
2023-03-05T12:29:57.215Z,3.07
2023-03-05T12:35:44.190Z,3.73
2023-03-05T12:41:28.053Z,4.08
2023-03-05T12:46:54.777Z,3.58
2023-03-05T12:52:26.254Z,4.78
2023-03-05T12:57:52.246Z,4.47
2023-03-05T13:03:19.974Z,4.25
2023-03-05T13:08:48.327Z,4.50
2023-03-05T13:14:11.272Z,3.83
2023-03-05T13:19:36.635Z,3.20
2023-03-05T13:25:17.146Z,3.50
2023-03-05T13:30:41.818Z,4.00
2023-03-05T13:36:05.483Z,3.80
2023-03-05T13:41:39.104Z,3.50
2023-03-05T13:47:03.241Z,3.63
2023-03-05T13:52:31.770Z,3.85
2023-03-05T13:57:59.212Z,3.67
2023-03-05T14:03:34.967Z,4.12
2023-03-05T14:08:59.998Z,4.22
2023-03-05T14:14:32.009Z,3.45
2023-03-05T14:19:58.139Z,3.50
2023-03-05T14:25:40.562Z,1.40
2023-03-05T14:31:08.450Z,0.80
2023-03-05T14:36:39.361Z,0.90
2023-03-05T14:42:01.636Z,0.67
2023-03-05T14:47:23.959Z,0.80
2023-03-05T14:52:47.296Z,0.85
2023-03-05T14:58:23.508Z,0.93
2023-03-05T15:03:45.871Z,0.80
2023-03-05T15:09:08.305Z,1.00
2023-03-05T15:14:31.113Z,1.50
2023-03-05T15:19:54.297Z,1.95
2023-03-05T15:25:18.292Z,1.82
2023-03-05T15:30:53.398Z,2.25
2023-03-05T15:41:55.599Z,3.00
2023-03-05T15:47:18.132Z,2.50
2023-03-05T15:52:40.908Z,2.37
2023-03-05T15:58:05.733Z,2.08
2023-03-05T16:03:31.248Z,2.20
2023-03-05T16:09:00.779Z,2.37
2023-03-05T16:14:26.696Z,2.33
2023-03-05T16:19:51.608Z,2.43
2023-03-05T16:25:14.228Z,3.03
2023-03-05T16:30:37.891Z,3.60
2023-03-05T16:36:02.422Z,13.72
2023-03-05T16:41:27.106Z,8.65
2023-03-05T16:46:52.282Z,4.90
2023-03-05T16:52:19.580Z,4.72
2023-03-05T16:57:39.950Z,5.12
2023-03-05T17:03:02.625Z,6.33
2023-03-05T17:08:25.975Z,7.70
2023-03-05T17:13:49.588Z,8.00
2023-03-05T17:19:12.406Z,10.33
2023-03-05T17:24:35.124Z,8.55
2023-03-05T17:29:58.606Z,10.73
2023-03-05T17:35:24.034Z,17.17
2023-03-05T17:40:51.456Z,19.20
2023-03-05T17:46:38.973Z,14.73
2023-03-05T17:52:01.542Z,13.67
2023-03-05T17:57:25.152Z,13.67
2023-03-05T18:02:47.520Z,13.17
2023-03-05T18:08:10.394Z,13.07
2023-03-05T18:13:32.656Z,14.17
2023-03-05T18:18:55.712Z,14.93
2023-03-05T18:24:18.286Z,16.97
2023-03-05T18:29:41.750Z,18.82
2023-03-05T18:35:04.686Z,30.17
2023-03-05T18:40:29.745Z,22.30
2023-03-05T18:45:59.360Z,26.35
2023-03-05T18:51:26.471Z,24.40
2023-03-05T18:56:48.789Z,19.57
2023-03-05T19:02:11.081Z,19.27
2023-03-05T19:07:35.598Z,21.63
2023-03-05T19:13:00.144Z,28.37
2023-03-05T19:18:23.743Z,20.08
2023-03-05T19:23:46.165Z,20.20
2023-03-05T19:29:09.135Z,22.10
2023-03-05T19:34:31.904Z,17.10
2023-03-05T19:39:54.628Z,20.97
2023-03-05T19:45:17.296Z,26.13
2023-03-05T19:50:41.956Z,18.10
2023-03-05T19:56:04.956Z,18.03
2023-03-05T20:01:31.189Z,17.10
2023-03-05T20:06:54.046Z,15.60
2023-03-05T20:12:16.865Z,15.77
2023-03-05T20:17:39.058Z,15.63
2023-03-05T20:23:01.824Z,15.07
2023-03-05T20:28:25.961Z,14.45
2023-03-05T20:33:48.428Z,13.97
2023-03-05T20:39:11.178Z,12.30
2023-03-05T20:44:33.859Z,13.20
2023-03-05T20:49:58.814Z,12.45
2023-03-05T20:55:21.303Z,11.50
2023-03-05T21:00:45.247Z,10.97
2023-03-05T21:06:15.323Z,11.40
2023-03-05T21:11:39.967Z,11.40
2023-03-05T21:17:02.168Z,12.90
2023-03-05T21:22:25.598Z,11.43
2023-03-05T21:27:49.020Z,11.77
2023-03-05T21:33:14.356Z,11.87
2023-03-05T21:38:38.849Z,11.97
2023-03-05T21:44:04.461Z,11.33
2023-03-05T21:49:27.341Z,11.40
2023-03-05T21:54:50.791Z,11.30
2023-03-05T22:00:17.733Z,11.03
2023-03-05T22:05:40.111Z,11.97
2023-03-05T22:11:04.378Z,12.63
2023-03-05T22:16:31.396Z,11.12
2023-03-05T22:21:56.166Z,11.77
2023-03-05T22:27:20.005Z,10.53
2023-03-05T22:32:45.029Z,11.53
2023-03-05T22:38:08.028Z,11.70
2023-03-05T22:43:33.466Z,11.97
2023-03-05T22:48:57.012Z,12.50
2023-03-05T22:54:19.259Z,12.50
2023-03-05T22:59:42.958Z,12.73
2023-03-05T23:05:08.535Z,13.63
2023-03-05T23:10:34.948Z,13.40
2023-03-05T23:15:57.770Z,15.03
2023-03-05T23:21:20.030Z,13.40
2023-03-05T23:26:42.900Z,14.70
2023-03-05T23:32:08.744Z,12.73
2023-03-05T23:37:32.774Z,12.23
2023-03-05T23:42:56.087Z,12.70
2023-03-05T23:48:20.419Z,12.07
2023-03-05T23:53:44.458Z,11.40
2023-03-05T23:59:07.196Z,11.63
